Time;durP1;ratioP1;P1;durP2;ratioP2;P2;SDS_P1;SDS_P2;PMS_P1;PMS_P2;Temp;Humidity;BMP_temperature;BMP_pressure;BME280_temperature;BME280_humidity;BME280_pressure;Samples;Min_cycle;Max_cycle;Signal;HPM_P1;HPM_P2
2022/09/12 00:01:09;;;;;;;4.20;2.72;;;;;;;;;;5054540;28;20496;-81
2022/09/12 00:11:02;;;;;;;5.57;2.65;;;;;;;;;;5076374;28;20035;-81
2022/09/12 00:13:27;;;;;;;3.40;2.63;;;;;;;;;;5076225;28;20109;-81
2022/09/12 00:22:36;;;;;;;4.07;2.80;;;;;;;;;;5076398;28;20142;-81
2022/09/12 00:25:39;;;;;;;2.80;2.60;;;;;;;;;;5055774;28;20051;-80
2022/09/12 00:28:04;;;;;;;2.53;2.33;;;;;;;;;;5055307;28;20076;-81
2022/09/12 00:30:30;;;;;;;2.55;2.35;;;;;;;;;;5021261;28;20029;-81
2022/09/12 00:32:55;;;;;;;2.95;2.72;;;;;;;;;;5055855;28;20029;-80
2022/09/12 00:35:20;;;;;;;2.95;2.65;;;;;;;;;;5055889;28;20100;-80
2022/09/12 00:37:46;;;;;;;2.92;2.70;;;;;;;;;;5021081;28;20449;-80
2022/09/12 00:40:11;;;;;;;3.38;2.72;;;;;;;;;;5037508;28;20060;-80
2022/09/12 00:42:36;;;;;;;3.22;2.80;;;;;;;;;;5037808;28;20036;-81
2022/09/12 00:45:02;;;;;;;2.75;2.55;;;;;;;;;;5037523;28;20025;-80
2022/09/12 00:47:28;;;;;;;2.58;2.38;;;;;;;;;;5055495;28;20044;-81
2022/09/12 00:49:58;;;;;;;3.10;2.80;;;;;;;;;;5020779;28;20033;-81
2022/09/12 00:52:36;;;;;;;3.03;2.72;;;;;;;;;;5020799;28;20146;-82
2022/09/12 00:55:06;;;;;;;2.78;2.50;;;;;;;;;;5037418;28;20025;-81
2022/09/12 00:57:38;;;;;;;2.90;2.70;;;;;;;;;;5037419;28;20069;-82
2022/09/12 01:00:16;;;;;;;2.75;2.55;;;;;;;;;;5037638;28;20043;-80
2022/09/12 01:03:04;;;;;;;3.45;2.80;;;;;;;;;;5037870;28;20017;-81
2022/09/12 01:05:30;;;;;;;2.92;2.72;;;;;;;;;;5037014;28;20028;-81
2022/09/12 01:07:56;;;;;;;4.63;2.90;;;;;;;;;;5037348;28;20186;-81
2022/09/12 01:10:22;;;;;;;3.78;2.83;;;;;;;;;;5054819;28;20107;-80
2022/09/12 01:12:48;;;;;;;3.65;2.60;;;;;;;;;;5037325;28;20056;-81
2022/09/12 01:15:13;;;;;;;2.70;2.50;;;;;;;;;;5037644;28;20067;-81
2022/09/12 01:17:56;;;;;;;3.05;2.70;;;;;;;;;;5018291;28;20489;-80
2022/09/12 01:20:35;;;;;;;2.60;2.40;;;;;;;;;;5036263;28;20029;-80
2022/09/12 01:23:09;;;;;;;2.95;2.67;;;;;;;;;;5054591;28;20040;-81
2022/09/12 01:26:03;;;;;;;3.30;2.70;;;;;;;;;;5020192;28;20473;-80
2022/09/12 01:28:38;;;;;;;3.03;2.77;;;;;;;;;;5054854;28;20044;-80
2022/09/12 01:31:12;;;;;;;3.28;2.67;;;;;;;;;;5054661;28;20021;-80
2022/09/12 01:33:41;;;;;;;3.00;2.78;;;;;;;;;;5036635;28;20025;-80
2022/09/12 01:36:28;;;;;;;4.10;2.78;;;;;;;;;;5020003;28;20107;-80
2022/09/12 01:38:59;;;;;;;4.35;2.70;;;;;;;;;;5019917;28;20028;-80
2022/09/12 01:41:30;;;;;;;2.90;2.60;;;;;;;;;;5053637;28;20424;-80
2022/09/12 01:44:05;;;;;;;3.67;2.80;;;;;;;;;;5054471;28;20489;-80
2022/09/12 01:46:34;;;;;;;3.55;2.67;;;;;;;;;;5019480;28;20043;-80
2022/09/12 01:49:13;;;;;;;3.15;2.70;;;;;;;;;;5054330;28;20117;-80
2022/09/12 01:51:52;;;;;;;5.72;2.50;;;;;;;;;;5036551;28;20020;-80
2022/09/12 01:54:44;;;;;;;3.03;2.72;;;;;;;;;;5036523;28;20029;-80
2022/09/12 01:57:15;;;;;;;3.20;2.55;;;;;;;;;;5052759;28;20025;-80
2022/09/12 01:59:47;;;;;;;2.95;2.67;;;;;;;;;;5036146;28;20021;-80
2022/09/12 02:02:41;;;;;;;3.50;2.83;;;;;;;;;;5036213;28;20080;-80
2022/09/12 02:05:21;;;;;;;3.38;2.85;;;;;;;;;;5035758;28;20021;-80
2022/09/12 02:07:57;;;;;;;2.90;2.60;;;;;;;;;;5035803;28;20074;-81
2022/09/12 02:10:25;;;;;;;3.85;2.42;;;;;;;;;;5019389;28;20115;-81
2022/09/12 02:12:56;;;;;;;6.63;2.47;;;;;;;;;;5052681;28;20111;-80
2022/09/12 02:15:29;;;;;;;3.10;2.70;;;;;;;;;;5035735;28;20020;-80
2022/09/12 02:17:57;;;;;;;2.83;2.63;;;;;;;;;;5054046;28;20043;-80
2022/09/12 02:20:28;;;;;;;4.20;2.80;;;;;;;;;;5035886;28;20036;-81
2022/09/12 02:22:55;;;;;;;6.05;2.80;;;;;;;;;;5035842;28;20060;-81
2022/09/12 02:25:21;;;;;;;2.92;2.63;;;;;;;;;;5035573;28;20389;-80
2022/09/12 02:27:53;;;;;;;3.00;2.70;;;;;;;;;;5028892;28;20110;-81
2022/09/12 02:30:19;;;;;;;2.95;2.75;;;;;;;;;;5019130;28;20032;-80
2022/09/12 02:33:14;;;;;;;4.05;2.97;;;;;;;;;;5035391;28;20053;-80
2022/09/12 02:35:50;;;;;;;2.83;2.63;;;;;;;;;;5040166;28;20119;-80
2022/09/12 02:38:32;;;;;;;3.38;2.72;;;;;;;;;;5035472;28;20028;-80
2022/09/12 02:40:58;;;;;;;3.40;2.75;;;;;;;;;;5018958;28;20025;-80
2022/09/12 02:43:23;;;;;;;2.42;2.22;;;;;;;;;;5035713;28;20111;-80
2022/09/12 02:45:49;;;;;;;2.58;2.38;;;;;;;;;;5018882;28;20439;-80
2022/09/12 02:48:18;;;;;;;2.70;2.50;;;;;;;;;;5053737;28;20507;-80
2022/09/12 02:50:43;;;;;;;3.58;2.60;;;;;;;;;;5018774;28;20431;-81
2022/09/12 02:53:09;;;;;;;3.03;2.83;;;;;;;;;;5035249;28;20029;-80
2022/09/12 02:55:35;;;;;;;2.63;2.30;;;;;;;;;;5035007;28;20139;-80
2022/09/12 02:58:02;;;;;;;2.90;2.60;;;;;;;;;;5035386;28;20101;-81
2022/09/12 03:00:45;;;;;;;4.05;2.80;;;;;;;;;;5018686;28;20511;-81
2022/09/12 03:03:24;;;;;;;2.75;2.50;;;;;;;;;;5035594;28;20029;-81
2022/09/12 03:05:55;;;;;;;2.80;2.50;;;;;;;;;;5035014;28;20021;-81
2022/09/12 03:08:25;;;;;;;4.80;2.70;;;;;;;;;;5035278;28;20491;-80
2022/09/12 03:11:09;;;;;;;2.80;2.60;;;;;;;;;;5035042;28;20439;-80
2022/09/12 03:13:43;;;;;;;2.92;2.70;;;;;;;;;;5052979;28;20021;-81
2022/09/12 03:16:33;;;;;;;3.28;2.50;;;;;;;;;;5053031;28;20021;-80
2022/09/12 03:19:18;;;;;;;2.83;2.60;;;;;;;;;;5035381;28;20036;-80
2022/09/12 03:22:08;;;;;;;3.20;2.78;;;;;;;;;;5034684;28;20079;-81
2022/09/12 03:25:06;;;;;;;3.30;2.50;;;;;;;;;;5034677;28;20021;-81
2022/09/12 03:27:42;;;;;;;3.13;2.83;;;;;;;;;;5050659;28;20044;-81
2022/09/12 03:30:09;;;;;;;3.00;2.80;;;;;;;;;;5038084;28;20024;-81
2022/09/12 03:32:52;;;;;;;3.25;2.75;;;;;;;;;;5055330;28;20031;-80
2022/09/12 03:35:19;;;;;;;5.07;2.97;;;;;;;;;;5037969;28;20055;-80
2022/09/12 03:37:46;;;;;;;3.03;2.72;;;;;;;;;;5038052;28;20062;-80
2022/09/12 03:40:12;;;;;;;2.60;2.40;;;;;;;;;;5037968;28;20094;-80
2022/09/12 03:42:38;;;;;;;4.13;2.90;;;;;;;;;;5055381;28;20551;-80
2022/09/12 03:45:04;;;;;;;3.65;3.00;;;;;;;;;;5058707;28;20594;-80
2022/09/12 03:47:30;;;;;;;4.28;2.80;;;;;;;;;;5058349;28;20183;-80
2022/09/12 03:49:55;;;;;;;2.92;2.63;;;;;;;;;;5059093;28;20113;-80
2022/09/12 03:52:21;;;;;;;3.13;2.65;;;;;;;;;;5041719;28;20071;-80
2022/09/12 03:54:47;;;;;;;2.70;2.50;;;;;;;;;;5058482;28;20028;-80
2022/09/12 03:57:12;;;;;;;3.38;2.97;;;;;;;;;;5058292;28;20074;-80
2022/09/12 03:59:37;;;;;;;4.88;2.97;;;;;;;;;;5076212;28;20040;-79
2022/09/12 04:02:03;;;;;;;5.10;2.83;;;;;;;;;;5058749;28;20024;-80
2022/09/12 04:04:29;;;;;;;3.90;3.47;;;;;;;;;;5058343;28;20182;-81
2022/09/12 04:06:54;;;;;;;5.15;3.60;;;;;;;;;;5041580;28;20536;-81
2022/09/12 04:09:20;;;;;;;8.15;4.85;;;;;;;;;;5076129;28;20159;-80
2022/09/12 04:11:45;;;;;;;5.68;3.53;;;;;;;;;;5058126;28;20028;-82
2022/09/12 04:14:11;;;;;;;10.27;3.90;;;;;;;;;;5041664;28;20358;-82
2022/09/12 04:16:36;;;;;;;6.95;3.63;;;;;;;;;;5057909;28;20051;-80
2022/09/12 04:19:01;;;;;;;12.38;4.18;;;;;;;;;;5076278;28;20032;-81
2022/09/12 04:21:27;;;;;;;9.88;4.55;;;;;;;;;;5041485;28;20028;-80
2022/09/12 04:23:52;;;;;;;8.27;3.30;;;;;;;;;;5040683;28;20178;-80
2022/09/12 04:26:19;;;;;;;7.45;3.80;;;;;;;;;;5040710;28;20052;-78
2022/09/12 04:28:45;;;;;;;7.30;3.90;;;;;;;;;;5040898;28;20115;-78
2022/09/12 04:31:14;;;;;;;9.75;4.45;;;;;;;;;;5075248;28;20020;-78
2022/09/12 04:33:40;;;;;;;11.45;4.57;;;;;;;;;;5058014;28;20028;-79
2022/09/12 04:36:13;;;;;;;11.43;4.53;;;;;;;;;;5042172;28;20024;-80
2022/09/12 04:38:38;;;;;;;7.80;3.60;;;;;;;;;;5059951;28;20507;-80
2022/09/12 04:41:18;;;;;;;8.00;4.20;;;;;;;;;;5074339;28;20033;-78
2022/09/12 04:43:47;;;;;;;6.80;3.70;;;;;;;;;;5055981;28;20024;-78
2022/09/12 04:46:15;;;;;;;10.07;4.90;;;;;;;;;;5040615;28;20178;-79
2022/09/12 04:48:41;;;;;;;12.82;5.07;;;;;;;;;;5057990;28;20040;-78
2022/09/12 04:51:12;;;;;;;16.35;5.68;;;;;;;;;;5057866;28;20028;-78
2022/09/12 04:53:38;;;;;;;18.25;6.32;;;;;;;;;;5057175;28;20020;-77
2022/09/12 04:56:05;;;;;;;62.70;18.08;;;;;;;;;;5056219;28;20146;-77
2022/09/12 04:58:32;;;;;;;36.33;11.73;;;;;;;;;;5040378;28;20028;-80
2022/09/12 05:01:06;;;;;;;32.33;10.57;;;;;;;;;;5056641;28;20047;-79
2022/09/12 05:03:32;;;;;;;32.10;10.57;;;;;;;;;;5056820;28;20027;-77
2022/09/12 05:06:01;;;;;;;23.80;9.15;;;;;;;;;;5056733;28;20032;-80
2022/09/12 05:08:26;;;;;;;24.05;8.85;;;;;;;;;;5040442;28;20024;-80
2022/09/12 05:10:52;;;;;;;21.45;9.18;;;;;;;;;;5056836;28;20485;-79
2022/09/12 05:13:17;;;;;;;18.75;8.30;;;;;;;;;;5074565;28;20200;-78
2022/09/12 05:15:43;;;;;;;17.35;8.85;;;;;;;;;;5056494;28;20067;-78
2022/09/12 05:18:08;;;;;;;15.60;7.78;;;;;;;;;;5034725;28;20435;-78
2022/09/12 05:20:34;;;;;;;21.52;7.78;;;;;;;;;;5034951;28;20036;-78
2022/09/12 05:23:00;;;;;;;15.27;7.43;;;;;;;;;;5069328;28;20028;-78
2022/09/12 05:25:25;;;;;;;13.65;6.97;;;;;;;;;;5051864;28;20032;-78
2022/09/12 05:27:52;;;;;;;15.48;7.72;;;;;;;;;;5056036;28;20115;-78
2022/09/12 05:30:17;;;;;;;15.77;7.85;;;;;;;;;;5057090;28;20441;-78
2022/09/12 05:32:42;;;;;;;15.80;7.53;;;;;;;;;;5074667;28;20079;-78
2022/09/12 05:35:08;;;;;;;15.70;7.35;;;;;;;;;;5040062;28;20405;-78
2022/09/12 05:37:33;;;;;;;18.35;7.20;;;;;;;;;;5056656;28;20028;-78
2022/09/12 05:39:59;;;;;;;19.83;7.82;;;;;;;;;;5040123;28;20029;-79
2022/09/12 05:42:24;;;;;;;13.77;7.15;;;;;;;;;;5057216;28;20126;-78
2022/09/12 05:44:49;;;;;;;16.15;7.35;;;;;;;;;;5040040;28;20036;-77
2022/09/12 05:47:16;;;;;;;14.93;7.60;;;;;;;;;;5074520;28;20036;-78
2022/09/12 05:49:44;;;;;;;14.20;8.50;;;;;;;;;;5074967;28;20032;-78
2022/09/12 05:52:09;;;;;;;12.32;6.75;;;;;;;;;;5057166;28;20021;-78
2022/09/12 05:54:35;;;;;;;10.27;6.68;;;;;;;;;;5040034;28;20055;-77
2022/09/12 05:57:00;;;;;;;14.75;6.68;;;;;;;;;;5056627;28;20082;-78
2022/09/12 05:59:27;;;;;;;9.77;6.80;;;;;;;;;;5074107;28;20119;-78
2022/09/12 06:01:52;;;;;;;10.95;7.35;;;;;;;;;;5074102;28;20039;-77
2022/09/12 06:04:18;;;;;;;11.15;6.68;;;;;;;;;;5074337;28;20111;-77
2022/09/12 06:06:44;;;;;;;13.77;7.07;;;;;;;;;;5039348;28;20424;-78
2022/09/12 06:09:09;;;;;;;9.57;6.85;;;;;;;;;;5056398;28;20016;-78
2022/09/12 06:11:36;;;;;;;14.13;7.30;;;;;;;;;;5056251;28;20039;-78
2022/09/12 06:14:02;;;;;;;13.98;7.55;;;;;;;;;;5039356;28;20029;-77
2022/09/12 06:16:30;;;;;;;12.85;7.75;;;;;;;;;;5039834;28;20017;-79
2022/09/12 06:18:57;;;;;;;10.82;7.05;;;;;;;;;;5056010;28;20119;-79
2022/09/12 06:21:25;;;;;;;11.45;7.72;;;;;;;;;;5056087;28;20021;-79
2022/09/12 06:23:52;;;;;;;11.82;6.82;;;;;;;;;;5073693;28;20040;-79
2022/09/12 06:26:20;;;;;;;11.98;7.78;;;;;;;;;;5041332;28;20093;-78
2022/09/12 06:28:46;;;;;;;12.18;7.78;;;;;;;;;;5039474;28;20059;-78
2022/09/12 06:31:14;;;;;;;11.35;7.20;;;;;;;;;;5055733;28;20475;-78
2022/09/12 06:33:41;;;;;;;13.45;7.35;;;;;;;;;;5055921;28;20084;-78
2022/09/12 06:36:10;;;;;;;11.55;7.55;;;;;;;;;;5072601;28;20043;-78
2022/09/12 06:38:35;;;;;;;12.07;7.85;;;;;;;;;;5055672;28;20414;-78
2022/09/12 06:41:06;;;;;;;14.18;7.70;;;;;;;;;;5055664;28;20032;-78
2022/09/12 06:43:32;;;;;;;11.75;7.78;;;;;;;;;;5055931;28;20025;-78
2022/09/12 06:45:57;;;;;;;15.18;7.65;;;;;;;;;;5073264;28;20498;-78
2022/09/12 06:48:23;;;;;;;12.20;7.18;;;;;;;;;;5055873;28;20063;-78
2022/09/12 06:50:59;;;;;;;10.82;7.57;;;;;;;;;;5055375;28;20047;-78
2022/09/12 06:53:26;;;;;;;10.50;7.30;;;;;;;;;;5038774;28;20017;-78
2022/09/12 06:55:59;;;;;;;11.32;8.02;;;;;;;;;;5073566;28;20032;-79
2022/09/12 06:58:25;;;;;;;12.40;7.40;;;;;;;;;;5038264;28;20033;-78
2022/09/12 07:00:51;;;;;;;13.63;7.55;;;;;;;;;;5038600;28;20396;-79
2022/09/12 07:03:17;;;;;;;12.88;8.50;;;;;;;;;;5073523;28;20025;-79
2022/09/12 07:05:42;;;;;;;11.93;8.20;;;;;;;;;;5073138;28;20396;-78
2022/09/12 07:08:08;;;;;;;12.00;7.65;;;;;;;;;;5073735;28;20111;-77
2022/09/12 07:10:33;;;;;;;13.10;7.78;;;;;;;;;;5073167;28;20115;-77
2022/09/12 07:12:58;;;;;;;14.20;8.50;;;;;;;;;;5038010;28;20025;-77
2022/09/12 07:15:24;;;;;;;14.77;9.02;;;;;;;;;;5038616;28;20025;-77
2022/09/12 07:17:49;;;;;;;18.02;9.50;;;;;;;;;;5055794;28;20024;-78
2022/09/12 07:20:15;;;;;;;16.45;8.32;;;;;;;;;;5077297;28;20032;-78
2022/09/12 07:22:40;;;;;;;11.38;8.05;;;;;;;;;;5077087;28;20032;-78
2022/09/12 07:25:06;;;;;;;12.57;7.97;;;;;;;;;;5077014;28;20097;-78
2022/09/12 07:27:32;;;;;;;12.82;8.50;;;;;;;;;;5076909;28;20096;-78
2022/09/12 07:29:57;;;;;;;11.93;7.80;;;;;;;;;;5059831;28;20477;-78
2022/09/12 07:32:23;;;;;;;13.35;8.10;;;;;;;;;;5059209;28;20111;-78
2022/09/12 07:34:48;;;;;;;11.63;7.32;;;;;;;;;;5059118;28;20112;-78
2022/09/12 07:37:14;;;;;;;14.20;7.90;;;;;;;;;;5026092;28;20029;-78
2022/09/12 07:39:39;;;;;;;12.98;8.13;;;;;;;;;;5077192;28;20400;-78
2022/09/12 07:42:05;;;;;;;16.70;8.50;;;;;;;;;;5042246;28;20036;-79
2022/09/12 07:44:31;;;;;;;15.23;7.80;;;;;;;;;;5058784;28;20450;-78
2022/09/12 07:46:56;;;;;;;12.95;8.63;;;;;;;;;;5075430;28;20037;-78
2022/09/12 07:49:22;;;;;;;11.55;8.07;;;;;;;;;;5026492;28;20033;-79
2022/09/12 07:51:48;;;;;;;12.18;8.10;;;;;;;;;;5042900;28;20051;-78
2022/09/12 07:54:13;;;;;;;12.68;8.05;;;;;;;;;;5059070;28;20099;-78
2022/09/12 07:56:39;;;;;;;11.25;7.68;;;;;;;;;;5042026;28;20035;-78
2022/09/12 07:59:05;;;;;;;12.52;8.02;;;;;;;;;;5076516;28;20059;-78
2022/09/12 08:01:31;;;;;;;15.15;8.38;;;;;;;;;;5076749;28;20052;-78
2022/09/12 08:03:58;;;;;;;14.63;7.75;;;;;;;;;;5058890;28;20055;-77
2022/09/12 08:06:24;;;;;;;13.52;8.52;;;;;;;;;;5058492;28;20059;-78
2022/09/12 08:08:51;;;;;;;12.82;8.35;;;;;;;;;;5041835;28;20036;-78
2022/09/12 08:11:18;;;;;;;12.55;7.97;;;;;;;;;;5058423;28;20476;-78
2022/09/12 08:13:44;;;;;;;14.30;8.00;;;;;;;;;;5041610;28;20020;-79
2022/09/12 08:16:17;;;;;;;15.38;7.60;;;;;;;;;;5058725;28;20551;-78
2022/09/12 08:18:43;;;;;;;14.15;8.13;;;;;;;;;;5058522;28;20128;-78
2022/09/12 08:21:13;;;;;;;12.15;8.32;;;;;;;;;;5041839;28;20036;-78
2022/09/12 08:23:38;;;;;;;10.40;7.72;;;;;;;;;;5041546;28;20054;-79
2022/09/12 08:26:05;;;;;;;13.10;8.45;;;;;;;;;;5055063;28;20128;-78
2022/09/12 08:28:32;;;;;;;13.68;9.48;;;;;;;;;;5038223;28;20447;-78
2022/09/12 08:31:04;;;;;;;12.93;8.13;;;;;;;;;;5038423;28;20040;-78
2022/09/12 08:33:32;;;;;;;11.05;7.97;;;;;;;;;;5038554;28;20040;-78
2022/09/12 08:36:20;;;;;;;10.68;7.50;;;;;;;;;;5021656;28;20374;-78
2022/09/12 08:38:48;;;;;;;13.75;8.32;;;;;;;;;;5055776;28;20032;-79
2022/09/12 08:41:13;;;;;;;14.13;8.82;;;;;;;;;;5038065;28;20028;-78
2022/09/12 08:44:15;;;;;;;12.27;8.20;;;;;;;;;;5055997;28;20029;-79
2022/09/12 08:47:04;;;;;;;10.02;7.65;;;;;;;;;;5055327;28;20107;-78
2022/09/12 08:49:45;;;;;;;9.88;7.60;;;;;;;;;;5037831;28;20029;-78
2022/09/12 08:52:15;;;;;;;15.35;7.95;;;;;;;;;;5055610;28;20108;-78
2022/09/12 08:54:43;;;;;;;13.85;8.20;;;;;;;;;;5038326;28;20029;-79
2022/09/12 08:57:10;;;;;;;9.57;7.88;;;;;;;;;;5021180;28;20025;-79
2022/09/12 08:59:42;;;;;;;10.32;7.53;;;;;;;;;;5037696;28;20025;-78
2022/09/12 09:02:40;;;;;;;11.20;7.70;;;;;;;;;;5038409;28;20477;-78
2022/09/12 09:05:19;;;;;;;11.45;7.35;;;;;;;;;;5037263;28;20097;-78
2022/09/12 09:08:12;;;;;;;11.57;7.07;;;;;;;;;;5021067;28;20024;-78
2022/09/12 09:10:46;;;;;;;9.27;7.32;;;;;;;;;;5037313;28;20080;-78
2022/09/12 09:16:20;;;;;;;9.55;6.80;;;;;;;;;;5055098;28;20052;-78
2022/09/12 09:18:47;;;;;;;8.60;6.18;;;;;;;;;;5037276;28;20120;-78
2022/09/12 09:21:30;;;;;;;11.20;7.05;;;;;;;;;;5037998;28;20045;-78
2022/09/12 09:24:09;;;;;;;8.52;6.22;;;;;;;;;;5037716;28;20036;-78
2022/09/12 09:27:04;;;;;;;8.93;6.25;;;;;;;;;;5042163;28;20090;-79
2022/09/12 09:29:38;;;;;;;8.98;6.50;;;;;;;;;;5057193;28;20036;-78
2022/09/12 09:32:12;;;;;;;8.68;5.93;;;;;;;;;;5056986;28;20382;-78
2022/09/12 09:34:37;;;;;;;8.98;5.72;;;;;;;;;;5040362;28;20032;-77
2022/09/12 09:37:15;;;;;;;9.48;5.85;;;;;;;;;;5074849;28;20368;-77
2022/09/12 09:40:18;;;;;;;7.25;5.82;;;;;;;;;;5056949;28;20064;-78
2022/09/12 09:42:52;;;;;;;8.57;5.57;;;;;;;;;;5012714;28;20438;-79
2022/09/12 09:45:23;;;;;;;6.97;5.70;;;;;;;;;;5013275;28;20033;-78
2022/09/12 09:48:14;;;;;;;10.80;5.72;;;;;;;;;;5012802;28;20375;-78
2022/09/12 09:50:39;;;;;;;6.47;5.18;;;;;;;;;;4996269;28;20486;-78
2022/09/12 09:53:11;;;;;;;8.05;5.72;;;;;;;;;;5012868;28;20037;-78
2022/09/12 09:55:39;;;;;;;7.72;4.95;;;;;;;;;;5013119;28;20501;-79
2022/09/12 09:58:05;;;;;;;7.55;5.65;;;;;;;;;;5012482;28;20490;-78
2022/09/12 10:00:37;;;;;;;7.18;5.45;;;;;;;;;;5013059;28;20045;-78
2022/09/12 10:03:09;;;;;;;7.85;4.78;;;;;;;;;;5012665;28;20509;-78
2022/09/12 10:05:50;;;;;;;7.50;4.47;;;;;;;;;;5012079;28;20037;-78
2022/09/12 10:08:25;;;;;;;6.68;4.93;;;;;;;;;;5012635;28;20095;-78
2022/09/12 10:10:57;;;;;;;7.05;5.25;;;;;;;;;;5012465;28;20045;-78
2022/09/12 10:13:40;;;;;;;6.57;4.72;;;;;;;;;;5012532;28;20029;-78
2022/09/12 10:16:20;;;;;;;6.65;4.43;;;;;;;;;;5028027;28;20044;-78
2022/09/12 10:18:46;;;;;;;6.40;4.70;;;;;;;;;;5056238;28;20033;-78
2022/09/12 10:21:33;;;;;;;7.15;5.07;;;;;;;;;;5055881;28;20043;-79
2022/09/12 10:24:20;;;;;;;6.03;4.60;;;;;;;;;;5072707;28;20392;-78
2022/09/12 10:26:53;;;;;;;5.40;4.38;;;;;;;;;;5073494;28;20036;-78
2022/09/12 10:29:30;;;;;;;7.07;4.68;;;;;;;;;;5074153;28;20353;-78
2022/09/12 10:31:57;;;;;;;6.97;5.03;;;;;;;;;;5056153;28;20384;-79
2022/09/12 10:34:26;;;;;;;6.35;4.60;;;;;;;;;;5073815;28;20026;-79
2022/09/12 10:36:57;;;;;;;5.25;4.55;;;;;;;;;;5071047;28;20110;-79
2022/09/12 10:39:22;;;;;;;11.18;4.13;;;;;;;;;;5052315;28;20052;-79
2022/09/12 10:41:48;;;;;;;11.05;5.43;;;;;;;;;;5070514;28;20024;-79
2022/09/12 10:44:25;;;;;;;12.93;5.97;;;;;;;;;;5070038;28;20037;-79
2022/09/12 10:46:50;;;;;;;7.15;4.50;;;;;;;;;;5053109;28;20040;-79
2022/09/12 10:49:30;;;;;;;7.63;4.47;;;;;;;;;;5053155;28;20028;-79
2022/09/12 10:51:58;;;;;;;11.45;5.00;;;;;;;;;;5035149;28;20030;-78
2022/09/12 10:54:25;;;;;;;9.25;4.38;;;;;;;;;;5053274;28;20329;-78
2022/09/12 10:57:29;;;;;;;6.95;4.10;;;;;;;;;;5053872;28;20474;-79
2022/09/12 11:00:16;;;;;;;8.10;4.10;;;;;;;;;;5026876;28;20037;-79
2022/09/12 11:03:16;;;;;;;5.40;3.70;;;;;;;;;;5062955;28;20028;-79
2022/09/12 11:05:51;;;;;;;8.60;3.97;;;;;;;;;;5079134;28;20499;-78
2022/09/12 11:08:26;;;;;;;10.38;3.78;;;;;;;;;;5059989;28;20064;-79
2022/09/12 11:11:27;;;;;;;10.43;3.83;;;;;;;;;;5058370;28;20025;-77
2022/09/12 11:14:22;;;;;;;4.13;3.28;;;;;;;;;;5041931;28;20024;-79
2022/09/12 11:17:11;;;;;;;15.15;3.53;;;;;;;;;;5055902;28;20027;-78
2022/09/12 11:19:56;;;;;;;6.80;3.78;;;;;;;;;;5056010;28;20028;-79
2022/09/12 11:22:46;;;;;;;7.65;3.80;;;;;;;;;;5075038;28;20055;-79
2022/09/12 11:25:19;;;;;;;7.07;3.55;;;;;;;;;;5076626;28;20042;-79
2022/09/12 11:28:02;;;;;;;11.63;3.33;;;;;;;;;;5042827;28;20110;-79
2022/09/12 11:30:36;;;;;;;7.90;3.10;;;;;;;;;;5055937;28;20615;-79
2022/09/12 11:33:25;;;;;;;4.00;2.90;;;;;;;;;;5037338;28;20036;-79
2022/09/12 11:35:51;;;;;;;4.35;2.90;;;;;;;;;;5037831;28;20500;-79
2022/09/12 11:38:16;;;;;;;4.53;2.92;;;;;;;;;;5037003;28;20044;-78
2022/09/12 11:40:42;;;;;;;2.88;2.53;;;;;;;;;;5037444;28;20029;-79
2022/09/12 11:43:48;;;;;;;4.88;2.50;;;;;;;;;;5055343;28;20029;-79
2022/09/12 11:46:21;;;;;;;8.02;2.78;;;;;;;;;;4999959;28;20112;-78
2022/09/12 11:48:52;;;;;;;2.83;2.53;;;;;;;;;;5037542;28;20393;-78
2022/09/12 11:51:32;;;;;;;3.75;2.92;;;;;;;;;;5037948;28;20067;-79
2022/09/12 11:54:11;;;;;;;4.05;2.88;;;;;;;;;;5018860;28;20028;-79
2022/09/12 11:56:42;;;;;;;8.18;2.58;;;;;;;;;;5035944;28;20021;-79
2022/09/12 11:59:42;;;;;;;5.22;3.58;;;;;;;;;;5035324;28;20021;-78
2022/09/12 12:02:19;;;;;;;4.88;2.40;;;;;;;;;;5019063;28;20024;-80
2022/09/12 12:04:58;;;;;;;3.05;2.42;;;;;;;;;;5037324;28;20029;-79
2022/09/12 12:07:24;;;;;;;4.93;2.05;;;;;;;;;;5039398;28;20056;-79
2022/09/12 12:09:51;;;;;;;4.88;2.63;;;;;;;;;;5023835;28;20036;-80
2022/09/12 12:12:27;;;;;;;3.85;2.30;;;;;;;;;;5057941;28;20075;-79
2022/09/12 12:14:53;;;;;;;6.28;2.70;;;;;;;;;;5060523;28;20025;-80
2022/09/12 12:17:21;;;;;;;3.85;2.25;;;;;;;;;;5042036;28;20496;-79
2022/09/12 12:19:56;;;;;;;15.95;2.83;;;;;;;;;;5044613;28;20029;-79
2022/09/12 12:22:23;;;;;;;5.50;2.45;;;;;;;;;;5044328;28;20547;-79
2022/09/12 12:25:03;;;;;;;5.85;2.85;;;;;;;;;;5041928;28;20043;-80
2022/09/12 12:27:48;;;;;;;5.53;2.47;;;;;;;;;;5059212;28;20045;-80
2022/09/12 12:30:28;;;;;;;10.93;2.53;;;;;;;;;;5060346;28;20473;-81
2022/09/12 12:33:01;;;;;;;17.02;2.40;;;;;;;;;;5057562;28;20396;-79
2022/09/12 12:35:39;;;;;;;9.73;2.28;;;;;;;;;;5057433;28;20036;-80
2022/09/12 12:38:31;;;;;;;2.90;2.20;;;;;;;;;;5024246;28;20119;-80
2022/09/12 12:41:15;;;;;;;3.72;2.20;;;;;;;;;;5058874;28;20029;-79
2022/09/12 12:43:41;;;;;;;3.80;2.22;;;;;;;;;;5042868;28;20032;-79
2022/09/12 12:46:09;;;;;;;3.65;2.30;;;;;;;;;;5043320;28;20094;-79
2022/09/12 12:48:45;;;;;;;5.15;2.55;;;;;;;;;;5042374;28;20032;-78
2022/09/12 12:51:36;;;;;;;7.10;2.40;;;;;;;;;;5059921;28;20029;-78
2022/09/12 12:54:05;;;;;;;6.30;2.08;;;;;;;;;;5056952;28;20032;-77
2022/09/12 12:56:38;;;;;;;4.20;2.03;;;;;;;;;;5040475;28;20520;-77
2022/09/12 12:59:21;;;;;;;2.45;2.10;;;;;;;;;;5039554;28;20039;-77
2022/09/12 13:01:52;;;;;;;3.75;2.15;;;;;;;;;;5055384;28;20025;-77
2022/09/12 13:04:19;;;;;;;5.30;2.50;;;;;;;;;;5020825;28;20021;-78
2022/09/12 13:07:06;;;;;;;8.13;2.20;;;;;;;;;;5037604;28;20473;-78
2022/09/12 13:09:44;;;;;;;4.97;2.20;;;;;;;;;;5036639;28;20033;-77
2022/09/12 13:12:17;;;;;;;5.07;2.45;;;;;;;;;;5036469;28;20695;-78
2022/09/12 13:14:45;;;;;;;4.23;2.40;;;;;;;;;;5032336;28;20040;-78
2022/09/12 13:17:37;;;;;;;7.90;2.65;;;;;;;;;;5048804;28;20032;-78
2022/09/12 13:20:07;;;;;;;7.38;2.40;;;;;;;;;;5049821;28;20021;-78
2022/09/12 13:22:59;;;;;;;5.32;2.10;;;;;;;;;;5039201;28;20563;-78
2022/09/12 13:25:33;;;;;;;4.18;2.63;;;;;;;;;;5035609;28;20067;-79
2022/09/12 13:28:00;;;;;;;4.30;2.28;;;;;;;;;;5052036;28;20048;-79
2022/09/12 13:30:28;;;;;;;2.65;2.10;;;;;;;;;;5076525;28;20430;-79
2022/09/12 13:32:56;;;;;;;4.30;2.00;;;;;;;;;;5058566;28;20047;-79
2022/09/12 13:35:33;;;;;;;3.92;2.05;;;;;;;;;;5078128;28;20054;-79
2022/09/12 13:38:07;;;;;;;4.50;2.10;;;;;;;;;;5059580;28;20066;-79
2022/09/12 13:40:42;;;;;;;3.10;2.25;;;;;;;;;;5077325;28;20051;-79
2022/09/12 13:43:25;;;;;;;4.13;2.15;;;;;;;;;;5041872;28;20027;-78
2022/09/12 13:45:51;;;;;;;4.05;1.90;;;;;;;;;;5058860;28;20094;-78
2022/09/12 13:48:23;;;;;;;2.30;1.98;;;;;;;;;;5059502;28;20082;-78
2022/09/12 13:50:52;;;;;;;2.97;2.08;;;;;;;;;;5060090;28;20039;-78
2022/09/12 13:53:21;;;;;;;2.17;1.85;;;;;;;;;;5076202;28;20107;-78
2022/09/12 13:55:53;;;;;;;2.55;2.10;;;;;;;;;;5053902;28;20162;-78
2022/09/12 13:58:26;;;;;;;2.13;1.92;;;;;;;;;;5013945;28;20025;-78
2022/09/12 14:01:14;;;;;;;2.03;1.83;;;;;;;;;;5030606;28;20041;-79
2022/09/12 14:06:45;;;;;;;2.72;1.92;;;;;;;;;;5048161;28;20040;-79
2022/09/12 14:09:18;;;;;;;5.07;1.90;;;;;;;;;;5046744;28;20025;-79
2022/09/12 14:11:43;;;;;;;3.47;1.85;;;;;;;;;;5036959;28;20087;-79
2022/09/12 14:14:20;;;;;;;1.90;1.80;;;;;;;;;;5022158;28;20041;-79
2022/09/12 14:16:46;;;;;;;1.80;1.70;;;;;;;;;;5047772;28;20086;-79
2022/09/12 14:19:11;;;;;;;4.28;2.40;;;;;;;;;;5030419;28;20104;-79
2022/09/12 14:21:37;;;;;;;6.38;2.17;;;;;;;;;;5034411;28;20465;-79
2022/09/12 14:24:04;;;;;;;2.80;1.98;;;;;;;;;;5056277;28;20032;-78
2022/09/12 14:26:33;;;;;;;2.33;1.80;;;;;;;;;;5041693;28;20040;-79
2022/09/12 14:28:59;;;;;;;2.00;1.80;;;;;;;;;;5070156;28;20055;-79
2022/09/12 14:31:32;;;;;;;2.97;2.00;;;;;;;;;;5069653;28;20028;-79
2022/09/12 14:34:09;;;;;;;2.55;1.80;;;;;;;;;;5053324;28;20051;-79
2022/09/12 14:36:36;;;;;;;2.00;1.70;;;;;;;;;;5069850;28;20463;-78
2022/09/12 14:39:32;;;;;;;2.05;1.75;;;;;;;;;;5067466;28;20020;-79
2022/09/12 14:42:21;;;;;;;1.77;1.60;;;;;;;;;;5033163;28;20127;-77
2022/09/12 14:44:59;;;;;;;2.88;1.80;;;;;;;;;;5027782;28;20044;-78
2022/09/12 14:47:26;;;;;;;3.80;1.90;;;;;;;;;;5036340;28;20211;-79
2022/09/12 14:49:52;;;;;;;2.28;1.90;;;;;;;;;;5029796;28;20388;-78
2022/09/12 14:52:27;;;;;;;3.40;1.90;;;;;;;;;;5048094;28;20025;-78
2022/09/12 14:54:58;;;;;;;2.50;1.73;;;;;;;;;;5029994;28;20021;-78
2022/09/12 14:57:31;;;;;;;3.30;1.83;;;;;;;;;;5001475;28;20132;-77
2022/09/12 15:00:12;;;;;;;3.80;2.00;;;;;;;;;;5013120;28;20021;-77
2022/09/12 15:02:42;;;;;;;3.40;2.20;;;;;;;;;;5047770;28;20025;-77
2022/09/12 15:05:07;;;;;;;5.00;1.95;;;;;;;;;;5029633;28;20028;-78
2022/09/12 15:07:39;;;;;;;4.90;1.75;;;;;;;;;;5047521;28;20029;-78
2022/09/12 15:10:14;;;;;;;4.55;1.65;;;;;;;;;;5029953;28;20036;-76
2022/09/12 15:12:39;;;;;;;4.00;1.55;;;;;;;;;;5047722;28;20113;-76
2022/09/12 15:15:16;;;;;;;4.63;1.77;;;;;;;;;;5054590;28;20112;-77
2022/09/12 15:17:45;;;;;;;2.25;1.63;;;;;;;;;;5057327;28;20029;-78
2022/09/12 15:20:11;;;;;;;4.38;1.60;;;;;;;;;;5039146;28;20049;-77
2022/09/12 15:22:37;;;;;;;3.53;1.63;;;;;;;;;;5058949;28;20036;-77
2022/09/12 15:25:04;;;;;;;3.17;1.90;;;;;;;;;;5047079;28;20100;-77
2022/09/12 15:27:30;;;;;;;4.55;1.75;;;;;;;;;;5043136;28;20045;-78